sensor_id;sensor_type;location;lat;lon;timestamp;temperature;humidity
65207;SHT31;58477;48.072;11.970;2023-04-25T00:00:28;5.31;88.75
65207;SHT31;58477;48.072;11.970;2023-04-25T00:02:54;5.39;88.82
65207;SHT31;58477;48.072;11.970;2023-04-25T00:05:22;5.46;88.72
65207;SHT31;58477;48.072;11.970;2023-04-25T00:07:49;5.54;88.72
65207;SHT31;58477;48.072;11.970;2023-04-25T00:10:15;5.56;88.49
65207;SHT31;58477;48.072;11.970;2023-04-25T00:12:41;5.48;88.63
65207;SHT31;58477;48.072;11.970;2023-04-25T00:15:07;5.58;88.49
65207;SHT31;58477;48.072;11.970;2023-04-25T00:17:33;5.69;88.09
65207;SHT31;58477;48.072;11.970;2023-04-25T00:20:00;5.76;87.56
65207;SHT31;58477;48.072;11.970;2023-04-25T00:22:26;5.72;87.80
65207;SHT31;58477;48.072;11.970;2023-04-25T00:24:51;5.69;88.23
65207;SHT31;58477;48.072;11.970;2023-04-25T00:27:18;5.46;88.45
65207;SHT31;58477;48.072;11.970;2023-04-25T00:29:44;5.58;88.33
65207;SHT31;58477;48.072;11.970;2023-04-25T00:32:10;5.62;88.75
65207;SHT31;58477;48.072;11.970;2023-04-25T00:34:35;5.73;88.28
65207;SHT31;58477;48.072;11.970;2023-04-25T00:37:01;5.73;87.88
65207;SHT31;58477;48.072;11.970;2023-04-25T00:39:30;5.83;87.34
65207;SHT31;58477;48.072;11.970;2023-04-25T00:41:55;5.93;87.50
65207;SHT31;58477;48.072;11.970;2023-04-25T00:44:22;6.07;87.03
65207;SHT31;58477;48.072;11.970;2023-04-25T00:46:48;6.06;87.50
65207;SHT31;58477;48.072;11.970;2023-04-25T00:49:14;6.02;87.77
65207;SHT31;58477;48.072;11.970;2023-04-25T00:51:42;6.07;87.45
65207;SHT31;58477;48.072;11.970;2023-04-25T00:54:09;6.14;87.28
65207;SHT31;58477;48.072;11.970;2023-04-25T00:56:35;6.17;87.20
65207;SHT31;58477;48.072;11.970;2023-04-25T00:59:01;6.24;87.03
65207;SHT31;58477;48.072;11.970;2023-04-25T01:01:26;6.29;86.57
65207;SHT31;58477;48.072;11.970;2023-04-25T01:03:53;6.40;86.30
65207;SHT31;58477;48.072;11.970;2023-04-25T01:06:19;6.43;86.26
65207;SHT31;58477;48.072;11.970;2023-04-25T01:08:44;6.45;86.32
65207;SHT31;58477;48.072;11.970;2023-04-25T01:11:10;6.43;86.14
65207;SHT31;58477;48.072;11.970;2023-04-25T01:13:35;6.47;86.35
65207;SHT31;58477;48.072;11.970;2023-04-25T01:16:01;6.48;86.41
65207;SHT31;58477;48.072;11.970;2023-04-25T01:18:27;6.61;85.85
65207;SHT31;58477;48.072;11.970;2023-04-25T01:20:53;6.64;85.87
65207;SHT31;58477;48.072;11.970;2023-04-25T01:23:21;6.68;85.54
65207;SHT31;58477;48.072;11.970;2023-04-25T01:25:50;6.61;85.72
65207;SHT31;58477;48.072;11.970;2023-04-25T01:28:16;6.73;85.33
65207;SHT31;58477;48.072;11.970;2023-04-25T01:30:42;6.73;85.09
65207;SHT31;58477;48.072;11.970;2023-04-25T01:33:08;6.81;84.99
65207;SHT31;58477;48.072;11.970;2023-04-25T01:35:34;6.75;84.70
65207;SHT31;58477;48.072;11.970;2023-04-25T01:38:00;6.81;84.37
65207;SHT31;58477;48.072;11.970;2023-04-25T01:40:26;6.83;84.26
65207;SHT31;58477;48.072;11.970;2023-04-25T01:42:52;6.85;84.18
65207;SHT31;58477;48.072;11.970;2023-04-25T01:45:18;6.80;84.39
65207;SHT31;58477;48.072;11.970;2023-04-25T01:47:44;6.80;84.44
65207;SHT31;58477;48.072;11.970;2023-04-25T01:50:16;6.84;84.27
65207;SHT31;58477;48.072;11.970;2023-04-25T01:52:43;6.85;83.63
65207;SHT31;58477;48.072;11.970;2023-04-25T01:55:09;6.80;84.02
65207;SHT31;58477;48.072;11.970;2023-04-25T01:57:38;6.80;83.61
65207;SHT31;58477;48.072;11.970;2023-04-25T02:00:06;6.85;83.74
65207;SHT31;58477;48.072;11.970;2023-04-25T02:02:38;6.77;83.80
65207;SHT31;58477;48.072;11.970;2023-04-25T02:05:06;6.77;83.98
65207;SHT31;58477;48.072;11.970;2023-04-25T02:07:34;6.73;83.97
65207;SHT31;58477;48.072;11.970;2023-04-25T02:10:00;6.65;83.92
65207;SHT31;58477;48.072;11.970;2023-04-25T02:12:29;6.63;84.28
65207;SHT31;58477;48.072;11.970;2023-04-25T02:14:54;6.50;84.41
65207;SHT31;58477;48.072;11.970;2023-04-25T02:17:36;6.48;84.71
65207;SHT31;58477;48.072;11.970;2023-04-25T02:20:02;6.55;84.75
65207;SHT31;58477;48.072;11.970;2023-04-25T02:22:28;6.58;84.24
65207;SHT31;58477;48.072;11.970;2023-04-25T02:24:55;6.64;84.20
65207;SHT31;58477;48.072;11.970;2023-04-25T02:27:21;6.67;84.38
65207;SHT31;58477;48.072;11.970;2023-04-25T02:29:46;6.68;84.26
65207;SHT31;58477;48.072;11.970;2023-04-25T02:32:12;6.60;84.37
65207;SHT31;58477;48.072;11.970;2023-04-25T02:34:37;6.55;84.52
65207;SHT31;58477;48.072;11.970;2023-04-25T02:37:03;6.51;84.80
65207;SHT31;58477;48.072;11.970;2023-04-25T02:39:28;6.50;84.54
65207;SHT31;58477;48.072;11.970;2023-04-25T02:41:55;6.38;84.65
65207;SHT31;58477;48.072;11.970;2023-04-25T02:44:20;6.30;84.64
65207;SHT31;58477;48.072;11.970;2023-04-25T02:46:46;6.19;85.25
65207;SHT31;58477;48.072;11.970;2023-04-25T02:49:11;6.14;85.43
65207;SHT31;58477;48.072;11.970;2023-04-25T02:51:37;6.17;84.87
65207;SHT31;58477;48.072;11.970;2023-04-25T02:54:02;6.21;84.86
65207;SHT31;58477;48.072;11.970;2023-04-25T02:56:29;6.17;85.08
65207;SHT31;58477;48.072;11.970;2023-04-25T02:58:55;6.27;84.75
65207;SHT31;58477;48.072;11.970;2023-04-25T03:01:21;6.27;84.69
65207;SHT31;58477;48.072;11.970;2023-04-25T03:03:46;6.23;84.85
65207;SHT31;58477;48.072;11.970;2023-04-25T03:06:12;6.29;84.92
65207;SHT31;58477;48.072;11.970;2023-04-25T03:08:37;6.27;84.81
65207;SHT31;58477;48.072;11.970;2023-04-25T03:11:03;6.29;84.23
65207;SHT31;58477;48.072;11.970;2023-04-25T03:13:28;6.23;84.42
65207;SHT31;58477;48.072;11.970;2023-04-25T03:15:55;6.19;84.46
65207;SHT31;58477;48.072;11.970;2023-04-25T03:18:21;6.06;84.86
65207;SHT31;58477;48.072;11.970;2023-04-25T03:20:46;6.09;84.47
65207;SHT31;58477;48.072;11.970;2023-04-25T03:23:12;6.20;84.68
65207;SHT31;58477;48.072;11.970;2023-04-25T03:25:41;6.29;84.64
65207;SHT31;58477;48.072;11.970;2023-04-25T03:28:06;6.30;83.87
65207;SHT31;58477;48.072;11.970;2023-04-25T03:30:32;6.40;83.94
65207;SHT31;58477;48.072;11.970;2023-04-25T03:32:58;6.51;83.97
65207;SHT31;58477;48.072;11.970;2023-04-25T03:35:24;6.48;83.85
65207;SHT31;58477;48.072;11.970;2023-04-25T03:37:50;6.55;84.27
65207;SHT31;58477;48.072;11.970;2023-04-25T03:40:21;6.60;83.65
65207;SHT31;58477;48.072;11.970;2023-04-25T03:43:06;6.65;83.05
65207;SHT31;58477;48.072;11.970;2023-04-25T03:45:33;6.63;83.83
65207;SHT31;58477;48.072;11.970;2023-04-25T03:47:58;6.77;82.73
65207;SHT31;58477;48.072;11.970;2023-04-25T03:50:26;6.65;84.50
65207;SHT31;58477;48.072;11.970;2023-04-25T03:52:52;6.51;84.84
65207;SHT31;58477;48.072;11.970;2023-04-25T03:55:17;6.36;85.73
65207;SHT31;58477;48.072;11.970;2023-04-25T03:57:43;6.19;85.96
65207;SHT31;58477;48.072;11.970;2023-04-25T04:00:09;5.92;87.60
65207;SHT31;58477;48.072;11.970;2023-04-25T04:02:40;5.66;88.51
65207;SHT31;58477;48.072;11.970;2023-04-25T04:05:07;5.51;87.93
65207;SHT31;58477;48.072;11.970;2023-04-25T04:07:36;5.48;87.70
65207;SHT31;58477;48.072;11.970;2023-04-25T04:10:09;5.42;90.04
65207;SHT31;58477;48.072;11.970;2023-04-25T04:12:38;5.35;88.80
65207;SHT31;58477;48.072;11.970;2023-04-25T04:15:04;5.32;88.74
65207;SHT31;58477;48.072;11.970;2023-04-25T04:17:31;5.32;89.02
65207;SHT31;58477;48.072;11.970;2023-04-25T04:19:57;5.25;90.30
65207;SHT31;58477;48.072;11.970;2023-04-25T04:22:23;5.27;89.79
65207;SHT31;58477;48.072;11.970;2023-04-25T04:24:51;5.27;89.54
65207;SHT31;58477;48.072;11.970;2023-04-25T04:27:49;5.28;89.16
65207;SHT31;58477;48.072;11.970;2023-04-25T04:30:24;5.34;89.17
65207;SHT31;58477;48.072;11.970;2023-04-25T04:32:56;5.38;89.18
65207;SHT31;58477;48.072;11.970;2023-04-25T04:35:22;5.44;88.71
65207;SHT31;58477;48.072;11.970;2023-04-25T04:37:49;5.49;89.38
65207;SHT31;58477;48.072;11.970;2023-04-25T04:40:17;5.60;89.45
65207;SHT31;58477;48.072;11.970;2023-04-25T04:43:09;5.69;88.28
65207;SHT31;58477;48.072;11.970;2023-04-25T04:45:48;5.75;88.31
65207;SHT31;58477;48.072;11.970;2023-04-25T04:48:38;5.73;88.34
65207;SHT31;58477;48.072;11.970;2023-04-25T04:51:36;5.83;87.65
65207;SHT31;58477;48.072;11.970;2023-04-25T04:54:09;5.87;87.83
65207;SHT31;58477;48.072;11.970;2023-04-25T04:56:57;5.89;87.56
65207;SHT31;58477;48.072;11.970;2023-04-25T04:59:46;5.90;87.68
65207;SHT31;58477;48.072;11.970;2023-04-25T05:02:30;6.00;87.97
65207;SHT31;58477;48.072;11.970;2023-04-25T05:05:08;6.02;87.50
65207;SHT31;58477;48.072;11.970;2023-04-25T05:07:57;6.05;87.54
65207;SHT31;58477;48.072;11.970;2023-04-25T05:10:51;6.02;87.65
65207;SHT31;58477;48.072;11.970;2023-04-25T05:13:34;5.96;86.85
65207;SHT31;58477;48.072;11.970;2023-04-25T05:16:11;5.95;87.08
65207;SHT31;58477;48.072;11.970;2023-04-25T05:18:55;5.90;87.26
65207;SHT31;58477;48.072;11.970;2023-04-25T05:21:27;5.87;87.65
65207;SHT31;58477;48.072;11.970;2023-04-25T05:24:05;5.95;87.96
65207;SHT31;58477;48.072;11.970;2023-04-25T05:26:31;5.99;87.48
65207;SHT31;58477;48.072;11.970;2023-04-25T05:29:07;6.00;88.57
65207;SHT31;58477;48.072;11.970;2023-04-25T05:31:36;6.11;88.14
65207;SHT31;58477;48.072;11.970;2023-04-25T05:34:07;6.31;88.02
65207;SHT31;58477;48.072;11.970;2023-04-25T05:36:53;6.47;87.41
65207;SHT31;58477;48.072;11.970;2023-04-25T05:39:19;6.63;86.57
65207;SHT31;58477;48.072;11.970;2023-04-25T05:42:03;6.80;86.69
65207;SHT31;58477;48.072;11.970;2023-04-25T05:44:47;6.84;86.86
65207;SHT31;58477;48.072;11.970;2023-04-25T05:47:31;6.81;87.43
65207;SHT31;58477;48.072;11.970;2023-04-25T05:50:29;6.83;87.07
65207;SHT31;58477;48.072;11.970;2023-04-25T05:53:08;6.74;87.15
65207;SHT31;58477;48.072;11.970;2023-04-25T05:55:38;6.75;87.57
65207;SHT31;58477;48.072;11.970;2023-04-25T05:58:19;6.87;87.16
65207;SHT31;58477;48.072;11.970;2023-04-25T06:00:44;6.88;87.30
65207;SHT31;58477;48.072;11.970;2023-04-25T06:03:11;6.95;86.79
65207;SHT31;58477;48.072;11.970;2023-04-25T06:05:43;6.99;86.63
65207;SHT31;58477;48.072;11.970;2023-04-25T06:08:09;7.15;86.51
65207;SHT31;58477;48.072;11.970;2023-04-25T06:10:37;7.32;85.19
65207;SHT31;58477;48.072;11.970;2023-04-25T06:13:03;7.66;84.26
65207;SHT31;58477;48.072;11.970;2023-04-25T06:15:30;8.05;83.82
65207;SHT31;58477;48.072;11.970;2023-04-25T06:17:59;8.27;82.69
65207;SHT31;58477;48.072;11.970;2023-04-25T06:20:25;7.87;83.56
65207;SHT31;58477;48.072;11.970;2023-04-25T06:22:52;7.66;83.84
65207;SHT31;58477;48.072;11.970;2023-04-25T06:25:18;7.79;83.73
65207;SHT31;58477;48.072;11.970;2023-04-25T06:27:44;9.09;81.98
65207;SHT31;58477;48.072;11.970;2023-04-25T06:30:09;9.64;80.04
65207;SHT31;58477;48.072;11.970;2023-04-25T06:32:37;9.76;76.99
65207;SHT31;58477;48.072;11.970;2023-04-25T06:35:03;9.12;81.12
65207;SHT31;58477;48.072;11.970;2023-04-25T06:37:29;8.54;81.57
65207;SHT31;58477;48.072;11.970;2023-04-25T06:39:55;8.10;82.15
65207;SHT31;58477;48.072;11.970;2023-04-25T06:42:21;7.90;82.39
65207;SHT31;58477;48.072;11.970;2023-04-25T06:44:57;9.00;80.97
65207;SHT31;58477;48.072;11.970;2023-04-25T06:47:22;9.69;77.73
65207;SHT31;58477;48.072;11.970;2023-04-25T06:49:49;10.15;78.87
65207;SHT31;58477;48.072;11.970;2023-04-25T06:52:14;10.21;77.35
65207;SHT31;58477;48.072;11.970;2023-04-25T06:54:40;9.63;78.75
65207;SHT31;58477;48.072;11.970;2023-04-25T06:57:17;8.61;80.91
65207;SHT31;58477;48.072;11.970;2023-04-25T06:59:43;8.58;81.92
65207;SHT31;58477;48.072;11.970;2023-04-25T07:02:09;9.05;81.15
65207;SHT31;58477;48.072;11.970;2023-04-25T07:04:34;8.86;80.34
65207;SHT31;58477;48.072;11.970;2023-04-25T07:07:01;8.48;80.15
65207;SHT31;58477;48.072;11.970;2023-04-25T07:09:37;7.77;82.16
65207;SHT31;58477;48.072;11.970;2023-04-25T07:12:04;7.65;82.48
65207;SHT31;58477;48.072;11.970;2023-04-25T07:14:29;7.26;83.06
65207;SHT31;58477;48.072;11.970;2023-04-25T07:16:56;7.20;84.44
65207;SHT31;58477;48.072;11.970;2023-04-25T07:19:24;7.33;83.74
65207;SHT31;58477;48.072;11.970;2023-04-25T07:21:53;7.30;83.67
65207;SHT31;58477;48.072;11.970;2023-04-25T07:24:18;7.25;83.30
65207;SHT31;58477;48.072;11.970;2023-04-25T07:26:46;8.17;82.74
65207;SHT31;58477;48.072;11.970;2023-04-25T07:29:21;8.24;82.24
65207;SHT31;58477;48.072;11.970;2023-04-25T07:31:47;8.01;82.33
65207;SHT31;58477;48.072;11.970;2023-04-25T07:34:13;8.57;81.45
65207;SHT31;58477;48.072;11.970;2023-04-25T07:36:38;10.09;78.70
65207;SHT31;58477;48.072;11.970;2023-04-25T07:39:05;10.65;76.04
65207;SHT31;58477;48.072;11.970;2023-04-25T07:41:30;10.97;75.59
65207;SHT31;58477;48.072;11.970;2023-04-25T07:43:55;12.72;70.22
65207;SHT31;58477;48.072;11.970;2023-04-25T07:46:21;11.88;70.24
65207;SHT31;58477;48.072;11.970;2023-04-25T07:48:47;10.85;74.91
65207;SHT31;58477;48.072;11.970;2023-04-25T07:51:12;10.72;74.79
65207;SHT31;58477;48.072;11.970;2023-04-25T07:53:38;10.09;75.42
65207;SHT31;58477;48.072;11.970;2023-04-25T07:56:09;11.37;73.27
65207;SHT31;58477;48.072;11.970;2023-04-25T07:58:37;11.85;70.52
65207;SHT31;58477;48.072;11.970;2023-04-25T08:01:06;11.77;70.81
65207;SHT31;58477;48.072;11.970;2023-04-25T08:03:34;11.90;69.04
65207;SHT31;58477;48.072;11.970;2023-04-25T08:06:02;12.01;69.93
65207;SHT31;58477;48.072;11.970;2023-04-25T08:08:30;11.64;70.34
65207;SHT31;58477;48.072;11.970;2023-04-25T08:10:56;12.63;68.49
65207;SHT31;58477;48.072;11.970;2023-04-25T08:13:21;11.37;69.58
65207;SHT31;58477;48.072;11.970;2023-04-25T08:15:47;10.99;73.34
65207;SHT31;58477;48.072;11.970;2023-04-25T08:18:13;11.19;72.16
65207;SHT31;58477;48.072;11.970;2023-04-25T08:20:38;12.89;67.66
65207;SHT31;58477;48.072;11.970;2023-04-25T08:23:06;13.51;68.11
65207;SHT31;58477;48.072;11.970;2023-04-25T08:26:11;13.92;64.78
65207;SHT31;58477;48.072;11.970;2023-04-25T08:28:38;14.83;61.98
65207;SHT31;58477;48.072;11.970;2023-04-25T08:31:04;14.75;62.56
65207;SHT31;58477;48.072;11.970;2023-04-25T08:33:37;13.91;63.33
65207;SHT31;58477;48.072;11.970;2023-04-25T08:36:16;13.26;65.53
65207;SHT31;58477;48.072;11.970;2023-04-25T08:38:42;13.10;64.19
65207;SHT31;58477;48.072;11.970;2023-04-25T08:41:11;14.69;62.62
65207;SHT31;58477;48.072;11.970;2023-04-25T08:43:37;13.85;63.79
65207;SHT31;58477;48.072;11.970;2023-04-25T08:46:03;13.50;62.70
65207;SHT31;58477;48.072;11.970;2023-04-25T08:48:36;15.54;59.63
65207;SHT31;58477;48.072;11.970;2023-04-25T08:51:05;14.68;61.38
65207;SHT31;58477;48.072;11.970;2023-04-25T08:53:32;13.84;62.40
65207;SHT31;58477;48.072;11.970;2023-04-25T08:56:01;15.00;61.02
65207;SHT31;58477;48.072;11.970;2023-04-25T08:58:30;15.78;58.06
65207;SHT31;58477;48.072;11.970;2023-04-25T09:00:55;15.72;56.99
65207;SHT31;58477;48.072;11.970;2023-04-25T09:03:24;14.65;59.15
65207;SHT31;58477;48.072;11.970;2023-04-25T09:05:51;15.98;57.31
65207;SHT31;58477;48.072;11.970;2023-04-25T09:08:16;15.04;57.89
65207;SHT31;58477;48.072;11.970;2023-04-25T09:10:42;13.33;61.98
65207;SHT31;58477;48.072;11.970;2023-04-25T09:13:10;12.87;62.90
65207;SHT31;58477;48.072;11.970;2023-04-25T09:15:57;14.19;61.58
65207;SHT31;58477;48.072;11.970;2023-04-25T09:18:47;14.08;60.33
65207;SHT31;58477;48.072;11.970;2023-04-25T09:21:14;13.64;61.30
65207;SHT31;58477;48.072;11.970;2023-04-25T09:23:48;12.83;62.49
65207;SHT31;58477;48.072;11.970;2023-04-25T09:26:21;12.75;63.86
65207;SHT31;58477;48.072;11.970;2023-04-25T09:28:47;13.74;61.79
65207;SHT31;58477;48.072;11.970;2023-04-25T09:31:23;14.30;60.54
65207;SHT31;58477;48.072;11.970;2023-04-25T09:33:58;16.28;56.88
65207;SHT31;58477;48.072;11.970;2023-04-25T09:36:26;16.34;56.51
65207;SHT31;58477;48.072;11.970;2023-04-25T09:39:00;15.16;58.31
65207;SHT31;58477;48.072;11.970;2023-04-25T09:41:37;15.17;56.92
65207;SHT31;58477;48.072;11.970;2023-04-25T09:44:03;14.53;59.36
65207;SHT31;58477;48.072;11.970;2023-04-25T09:46:34;15.72;57.51
65207;SHT31;58477;48.072;11.970;2023-04-25T09:49:08;15.19;58.44
65207;SHT31;58477;48.072;11.970;2023-04-25T09:52:13;14.08;60.82
65207;SHT31;58477;48.072;11.970;2023-04-25T09:54:49;13.91;61.38
65207;SHT31;58477;48.072;11.970;2023-04-25T09:57:23;13.46;61.77
65207;SHT31;58477;48.072;11.970;2023-04-25T09:59:51;12.79;61.92
65207;SHT31;58477;48.072;11.970;2023-04-25T10:02:19;13.30;62.91
65207;SHT31;58477;48.072;11.970;2023-04-25T10:04:51;15.14;58.76
65207;SHT31;58477;48.072;11.970;2023-04-25T10:07:33;14.25;57.47
65207;SHT31;58477;48.072;11.970;2023-04-25T10:10:02;13.61;60.13
65207;SHT31;58477;48.072;11.970;2023-04-25T10:12:29;12.92;61.15
65207;SHT31;58477;48.072;11.970;2023-04-25T10:14:57;12.48;62.79
65207;SHT31;58477;48.072;11.970;2023-04-25T10:17:23;12.67;62.69
65207;SHT31;58477;48.072;11.970;2023-04-25T10:19:48;12.73;62.74
65207;SHT31;58477;48.072;11.970;2023-04-25T10:22:31;12.75;63.27
65207;SHT31;58477;48.072;11.970;2023-04-25T10:24:58;15.54;59.21
65207;SHT31;58477;48.072;11.970;2023-04-25T10:27:26;16.50;56.90
65207;SHT31;58477;48.072;11.970;2023-04-25T10:32:32;16.26;53.68
65207;SHT31;58477;48.072;11.970;2023-04-25T10:35:24;15.59;55.05
65207;SHT31;58477;48.072;11.970;2023-04-25T10:38:08;14.06;59.02
65207;SHT31;58477;48.072;11.970;2023-04-25T10:40:34;13.33;61.21
65207;SHT31;58477;48.072;11.970;2023-04-25T10:46:01;16.34;55.47
65207;SHT31;58477;48.072;11.970;2023-04-25T10:48:29;15.84;56.60
65207;SHT31;58477;48.072;11.970;2023-04-25T10:53:33;14.22;60.99
65207;SHT31;58477;48.072;11.970;2023-04-25T10:55:59;16.63;58.32
65207;SHT31;58477;48.072;11.970;2023-04-25T10:58:25;15.81;56.75
65207;SHT31;58477;48.072;11.970;2023-04-25T11:00:51;14.04;59.53
65207;SHT31;58477;48.072;11.970;2023-04-25T11:03:17;13.04;58.55
65207;SHT31;58477;48.072;11.970;2023-04-25T11:05:44;12.87;62.55
65207;SHT31;58477;48.072;11.970;2023-04-25T11:08:13;12.66;63.70
65207;SHT31;58477;48.072;11.970;2023-04-25T11:10:39;12.70;64.06
65207;SHT31;58477;48.072;11.970;2023-04-25T11:13:05;13.57;61.89
65207;SHT31;58477;48.072;11.970;2023-04-25T11:15:30;13.33;60.24
65207;SHT31;58477;48.072;11.970;2023-04-25T11:17:56;13.61;58.80
65207;SHT31;58477;48.072;11.970;2023-04-25T11:20:22;13.79;58.22
65207;SHT31;58477;48.072;11.970;2023-04-25T11:22:51;13.27;60.64
65207;SHT31;58477;48.072;11.970;2023-04-25T11:25:16;12.67;61.59
65207;SHT31;58477;48.072;11.970;2023-04-25T11:27:55;11.12;67.05
65207;SHT31;58477;48.072;11.970;2023-04-25T11:30:23;10.53;70.28
65207;SHT31;58477;48.072;11.970;2023-04-25T11:32:49;9.76;74.71
65207;SHT31;58477;48.072;11.970;2023-04-25T11:35:16;8.40;81.92
65207;SHT31;58477;48.072;11.970;2023-04-25T11:37:42;7.60;84.91
65207;SHT31;58477;48.072;11.970;2023-04-25T11:40:09;7.19;87.12
65207;SHT31;58477;48.072;11.970;2023-04-25T11:42:39;6.91;87.70
65207;SHT31;58477;48.072;11.970;2023-04-25T11:45:08;6.88;88.27
65207;SHT31;58477;48.072;11.970;2023-04-25T11:47:35;6.92;89.11
65207;SHT31;58477;48.072;11.970;2023-04-25T11:50:05;7.08;90.23
65207;SHT31;58477;48.072;11.970;2023-04-25T11:52:41;7.22;89.52
65207;SHT31;58477;48.072;11.970;2023-04-25T11:55:13;7.48;90.13
65207;SHT31;58477;48.072;11.970;2023-04-25T11:57:39;7.70;88.81
65207;SHT31;58477;48.072;11.970;2023-04-25T12:00:15;7.84;88.32
65207;SHT31;58477;48.072;11.970;2023-04-25T12:02:44;7.95;87.55
65207;SHT31;58477;48.072;11.970;2023-04-25T12:05:10;8.30;87.45
65207;SHT31;58477;48.072;11.970;2023-04-25T12:07:36;8.49;86.91
65207;SHT31;58477;48.072;11.970;2023-04-25T12:10:07;8.33;87.41
65207;SHT31;58477;48.072;11.970;2023-04-25T12:12:36;8.05;87.11
65207;SHT31;58477;48.072;11.970;2023-04-25T12:15:17;7.77;87.44
65207;SHT31;58477;48.072;11.970;2023-04-25T12:17:49;7.87;86.93
65207;SHT31;58477;48.072;11.970;2023-04-25T12:20:19;8.01;86.84
65207;SHT31;58477;48.072;11.970;2023-04-25T12:22:47;8.11;86.17
65207;SHT31;58477;48.072;11.970;2023-04-25T12:28:29;8.30;85.17
65207;SHT31;58477;48.072;11.970;2023-04-25T12:31:00;8.21;85.51
65207;SHT31;58477;48.072;11.970;2023-04-25T12:33:31;8.47;85.30
65207;SHT31;58477;48.072;11.970;2023-04-25T12:35:58;8.23;83.67
65207;SHT31;58477;48.072;11.970;2023-04-25T12:38:27;8.15;84.88
65207;SHT31;58477;48.072;11.970;2023-04-25T12:40:53;8.35;85.12
65207;SHT31;58477;48.072;11.970;2023-04-25T12:43:19;8.48;85.15
65207;SHT31;58477;48.072;11.970;2023-04-25T12:45:47;8.21;85.11
65207;SHT31;58477;48.072;11.970;2023-04-25T12:48:13;8.08;85.96
65207;SHT31;58477;48.072;11.970;2023-04-25T12:50:39;8.21;85.89
65207;SHT31;58477;48.072;11.970;2023-04-25T12:53:04;8.20;85.32
65207;SHT31;58477;48.072;11.970;2023-04-25T12:55:29;7.97;85.63
65207;SHT31;58477;48.072;11.970;2023-04-25T12:57:55;8.15;86.69
65207;SHT31;58477;48.072;11.970;2023-04-25T13:00:20;8.20;86.36
65207;SHT31;58477;48.072;11.970;2023-04-25T13:02:46;8.37;86.84
65207;SHT31;58477;48.072;11.970;2023-04-25T13:05:14;8.44;86.55
65207;SHT31;58477;48.072;11.970;2023-04-25T13:07:40;8.49;86.53
65207;SHT31;58477;48.072;11.970;2023-04-25T13:10:06;8.47;87.20
65207;SHT31;58477;48.072;11.970;2023-04-25T13:12:32;8.83;86.43
65207;SHT31;58477;48.072;11.970;2023-04-25T13:14:58;8.83;85.92
65207;SHT31;58477;48.072;11.970;2023-04-25T13:17:23;9.12;85.92
65207;SHT31;58477;48.072;11.970;2023-04-25T13:19:49;9.67;85.44
65207;SHT31;58477;48.072;11.970;2023-04-25T13:22:14;9.66;82.91
65207;SHT31;58477;48.072;11.970;2023-04-25T13:24:42;9.88;83.97
65207;SHT31;58477;48.072;11.970;2023-04-25T13:27:08;9.37;83.57
65207;SHT31;58477;48.072;11.970;2023-04-25T13:29:33;9.88;84.86
65207;SHT31;58477;48.072;11.970;2023-04-25T13:32:03;9.71;81.55
65207;SHT31;58477;48.072;11.970;2023-04-25T13:34:29;9.53;81.93
65207;SHT31;58477;48.072;11.970;2023-04-25T13:36:55;9.19;83.15
65207;SHT31;58477;48.072;11.970;2023-04-25T13:39:20;9.30;83.35
65207;SHT31;58477;48.072;11.970;2023-04-25T13:41:46;9.48;84.79
65207;SHT31;58477;48.072;11.970;2023-04-25T13:44:11;9.20;84.72
65207;SHT31;58477;48.072;11.970;2023-04-25T13:46:37;9.54;84.92
65207;SHT31;58477;48.072;11.970;2023-04-25T13:49:03;9.84;84.21
65207;SHT31;58477;48.072;11.970;2023-04-25T13:51:29;9.29;83.25
65207;SHT31;58477;48.072;11.970;2023-04-25T13:53:56;9.05;84.63
65207;SHT31;58477;48.072;11.970;2023-04-25T13:56:22;8.64;86.18
65207;SHT31;58477;48.072;11.970;2023-04-25T13:58:49;8.24;86.73
65207;SHT31;58477;48.072;11.970;2023-04-25T14:01:15;7.84;87.14
65207;SHT31;58477;48.072;11.970;2023-04-25T14:03:40;7.91;87.83
65207;SHT31;58477;48.072;11.970;2023-04-25T14:06:06;7.72;87.19
65207;SHT31;58477;48.072;11.970;2023-04-25T14:08:32;7.90;88.26
65207;SHT31;58477;48.072;11.970;2023-04-25T14:10:57;7.91;87.34
65207;SHT31;58477;48.072;11.970;2023-04-25T14:13:22;8.04;87.13
65207;SHT31;58477;48.072;11.970;2023-04-25T14:15:49;8.04;87.28
65207;SHT31;58477;48.072;11.970;2023-04-25T14:18:15;8.21;87.76
65207;SHT31;58477;48.072;11.970;2023-04-25T14:20:41;8.27;88.61
65207;SHT31;58477;48.072;11.970;2023-04-25T14:23:06;8.05;87.69
65207;SHT31;58477;48.072;11.970;2023-04-25T14:25:32;8.00;88.82
65207;SHT31;58477;48.072;11.970;2023-04-25T14:27:57;7.77;87.58
65207;SHT31;58477;48.072;11.970;2023-04-25T14:30:23;7.93;88.71
65207;SHT31;58477;48.072;11.970;2023-04-25T14:32:49;7.84;88.53
65207;SHT31;58477;48.072;11.970;2023-04-25T14:35:14;7.86;88.20
65207;SHT31;58477;48.072;11.970;2023-04-25T14:37:40;7.74;87.91
65207;SHT31;58477;48.072;11.970;2023-04-25T14:40:06;7.83;88.33
65207;SHT31;58477;48.072;11.970;2023-04-25T14:42:35;7.42;88.39
65207;SHT31;58477;48.072;11.970;2023-04-25T14:45:02;7.39;90.35
65207;SHT31;58477;48.072;11.970;2023-04-25T14:47:27;7.08;89.90
65207;SHT31;58477;48.072;11.970;2023-04-25T14:49:53;7.18;90.46
65207;SHT31;58477;48.072;11.970;2023-04-25T14:52:20;7.11;90.89
65207;SHT31;58477;48.072;11.970;2023-04-25T14:54:46;7.14;90.10
65207;SHT31;58477;48.072;11.970;2023-04-25T14:57:12;7.16;90.36
65207;SHT31;58477;48.072;11.970;2023-04-25T14:59:38;7.16;90.22
65207;SHT31;58477;48.072;11.970;2023-04-25T15:02:04;7.23;89.17
65207;SHT31;58477;48.072;11.970;2023-04-25T15:04:29;7.19;90.19
65207;SHT31;58477;48.072;11.970;2023-04-25T15:06:55;7.16;90.33
65207;SHT31;58477;48.072;11.970;2023-04-25T15:09:21;7.38;90.46
65207;SHT31;58477;48.072;11.970;2023-04-25T15:11:48;7.73;90.76
65207;SHT31;58477;48.072;11.970;2023-04-25T15:14:13;7.76;88.47
65207;SHT31;58477;48.072;11.970;2023-04-25T15:16:39;7.48;88.88
65207;SHT31;58477;48.072;11.970;2023-04-25T15:19:04;7.56;89.17
65207;SHT31;58477;48.072;11.970;2023-04-25T15:21:31;7.63;89.65
65207;SHT31;58477;48.072;11.970;2023-04-25T15:23:56;7.52;88.35
65207;SHT31;58477;48.072;11.970;2023-04-25T15:26:22;7.89;89.18
65207;SHT31;58477;48.072;11.970;2023-04-25T15:28:47;7.93;87.66
65207;SHT31;58477;48.072;11.970;2023-04-25T15:31:14;8.18;88.58
65207;SHT31;58477;48.072;11.970;2023-04-25T15:33:39;8.48;88.83
65207;SHT31;58477;48.072;11.970;2023-04-25T15:36:05;8.42;87.40
65207;SHT31;58477;48.072;11.970;2023-04-25T15:38:31;8.01;87.10
65207;SHT31;58477;48.072;11.970;2023-04-25T15:40:57;7.91;87.18
65207;SHT31;58477;48.072;11.970;2023-04-25T15:43:22;7.98;87.72
65207;SHT31;58477;48.072;11.970;2023-04-25T15:45:48;7.98;88.37
65207;SHT31;58477;48.072;11.970;2023-04-25T15:48:13;7.90;87.54